sensor_id;sensor_type;location;lat;lon;timestamp;temperature;humidity
3548;DHT22;1788;49.400;11.092;2024-03-08T00:01:01;4.40;52.60
3548;DHT22;1788;49.400;11.092;2024-03-08T00:03:29;4.40;52.60
3548;DHT22;1788;49.400;11.092;2024-03-08T00:05:55;4.40;52.60
3548;DHT22;1788;49.400;11.092;2024-03-08T00:08:22;4.40;52.60
3548;DHT22;1788;49.400;11.092;2024-03-08T00:10:49;4.40;52.60
3548;DHT22;1788;49.400;11.092;2024-03-08T00:13:15;4.40;52.50
3548;DHT22;1788;49.400;11.092;2024-03-08T00:15:43;4.40;52.60
3548;DHT22;1788;49.400;11.092;2024-03-08T00:18:09;4.40;52.50
3548;DHT22;1788;49.400;11.092;2024-03-08T00:20:37;4.40;52.60
3548;DHT22;1788;49.400;11.092;2024-03-08T00:23:03;4.40;52.60
3548;DHT22;1788;49.400;11.092;2024-03-08T00:25:31;4.40;53.20
3548;DHT22;1788;49.400;11.092;2024-03-08T00:27:57;4.40;52.60
3548;DHT22;1788;49.400;11.092;2024-03-08T00:30:24;4.40;52.70
3548;DHT22;1788;49.400;11.092;2024-03-08T00:32:51;4.40;52.70
3548;DHT22;1788;49.400;11.092;2024-03-08T00:35:17;4.40;52.70
3548;DHT22;1788;49.400;11.092;2024-03-08T00:37:45;4.30;52.70
3548;DHT22;1788;49.400;11.092;2024-03-08T00:40:11;4.30;52.70
3548;DHT22;1788;49.400;11.092;2024-03-08T00:42:39;4.30;52.80
3548;DHT22;1788;49.400;11.092;2024-03-08T00:45:05;4.30;52.80
3548;DHT22;1788;49.400;11.092;2024-03-08T00:47:33;4.30;53.40
3548;DHT22;1788;49.400;11.092;2024-03-08T00:49:59;4.30;52.90
3548;DHT22;1788;49.400;11.092;2024-03-08T00:52:26;4.30;52.90
3548;DHT22;1788;49.400;11.092;2024-03-08T00:54:52;4.30;53.00
3548;DHT22;1788;49.400;11.092;2024-03-08T00:57:19;4.30;53.00
3548;DHT22;1788;49.400;11.092;2024-03-08T00:59:47;4.30;53.10
3548;DHT22;1788;49.400;11.092;2024-03-08T01:02:14;4.30;53.10
3548;DHT22;1788;49.400;11.092;2024-03-08T01:04:40;4.30;53.20
3548;DHT22;1788;49.400;11.092;2024-03-08T01:07:07;4.30;53.20
3548;DHT22;1788;49.400;11.092;2024-03-08T01:09:34;4.20;53.20
3548;DHT22;1788;49.400;11.092;2024-03-08T01:12:00;4.20;53.30
3548;DHT22;1788;49.400;11.092;2024-03-08T01:14:27;4.20;53.30
3548;DHT22;1788;49.400;11.092;2024-03-08T01:16:54;4.20;53.50
3548;DHT22;1788;49.400;11.092;2024-03-08T01:19:21;4.20;53.40
3548;DHT22;1788;49.400;11.092;2024-03-08T01:21:48;4.20;53.50
3548;DHT22;1788;49.400;11.092;2024-03-08T01:24:15;4.20;53.40
3548;DHT22;1788;49.400;11.092;2024-03-08T01:26:41;4.20;53.50
3548;DHT22;1788;49.400;11.092;2024-03-08T01:29:08;4.20;53.50
3548;DHT22;1788;49.400;11.092;2024-03-08T01:31:35;4.20;53.50
3548;DHT22;1788;49.400;11.092;2024-03-08T01:34:02;4.20;53.60
3548;DHT22;1788;49.400;11.092;2024-03-08T01:36:29;4.10;53.50
3548;DHT22;1788;49.400;11.092;2024-03-08T01:38:55;4.20;53.60
3548;DHT22;1788;49.400;11.092;2024-03-08T01:41:22;4.10;53.60
3548;DHT22;1788;49.400;11.092;2024-03-08T01:43:49;4.10;53.60
3548;DHT22;1788;49.400;11.092;2024-03-08T01:46:16;4.20;53.80
3548;DHT22;1788;49.400;11.092;2024-03-08T01:48:43;4.20;54.00
3548;DHT22;1788;49.400;11.092;2024-03-08T01:51:09;4.20;53.80
3548;DHT22;1788;49.400;11.092;2024-03-08T01:53:36;4.20;53.90
3548;DHT22;1788;49.400;11.092;2024-03-08T01:56:02;4.20;53.90
3548;DHT22;1788;49.400;11.092;2024-03-08T01:58:29;4.20;53.90
3548;DHT22;1788;49.400;11.092;2024-03-08T02:00:56;4.20;53.90
3548;DHT22;1788;49.400;11.092;2024-03-08T02:03:22;4.20;53.90
3548;DHT22;1788;49.400;11.092;2024-03-08T02:05:49;4.20;53.90
3548;DHT22;1788;49.400;11.092;2024-03-08T02:08:15;4.20;53.90
3548;DHT22;1788;49.400;11.092;2024-03-08T02:13:10;4.10;53.80
3548;DHT22;1788;49.400;11.092;2024-03-08T02:18:03;4.10;53.90
3548;DHT22;1788;49.400;11.092;2024-03-08T02:20:29;4.10;53.90
3548;DHT22;1788;49.400;11.092;2024-03-08T02:22:57;4.10;54.00
3548;DHT22;1788;49.400;11.092;2024-03-08T02:25:23;4.10;54.00
3548;DHT22;1788;49.400;11.092;2024-03-08T02:27:51;4.10;54.10
3548;DHT22;1788;49.400;11.092;2024-03-08T02:30:17;4.10;54.10
3548;DHT22;1788;49.400;11.092;2024-03-08T02:32:45;4.10;54.10
3548;DHT22;1788;49.400;11.092;2024-03-08T02:35:11;4.10;54.10
3548;DHT22;1788;49.400;11.092;2024-03-08T02:37:38;4.10;54.10
3548;DHT22;1788;49.400;11.092;2024-03-08T02:40:05;4.10;54.10
3548;DHT22;1788;49.400;11.092;2024-03-08T02:42:31;4.10;54.20
3548;DHT22;1788;49.400;11.092;2024-03-08T02:44:58;4.10;54.20
3548;DHT22;1788;49.400;11.092;2024-03-08T02:47:24;4.10;54.30
3548;DHT22;1788;49.400;11.092;2024-03-08T02:49:51;4.10;54.30
3548;DHT22;1788;49.400;11.092;2024-03-08T02:52:18;4.20;54.40
3548;DHT22;1788;49.400;11.092;2024-03-08T02:54:45;4.20;54.50
3548;DHT22;1788;49.400;11.092;2024-03-08T02:57:11;4.20;54.40
3548;DHT22;1788;49.400;11.092;2024-03-08T02:59:39;4.20;54.40
3548;DHT22;1788;49.400;11.092;2024-03-08T03:02:05;4.20;54.40
3548;DHT22;1788;49.400;11.092;2024-03-08T03:04:32;4.20;54.40
3548;DHT22;1788;49.400;11.092;2024-03-08T03:06:59;4.20;54.40
3548;DHT22;1788;49.400;11.092;2024-03-08T03:09:25;4.20;54.50
3548;DHT22;1788;49.400;11.092;2024-03-08T03:14:20;4.20;54.40
3548;DHT22;1788;49.400;11.092;2024-03-08T03:16:47;4.20;54.50
3548;DHT22;1788;49.400;11.092;2024-03-08T03:19:13;4.20;54.50
3548;DHT22;1788;49.400;11.092;2024-03-08T03:21:41;4.20;54.50
3548;DHT22;1788;49.400;11.092;2024-03-08T03:24:07;4.20;54.50
3548;DHT22;1788;49.400;11.092;2024-03-08T03:26:34;4.20;54.50
3548;DHT22;1788;49.400;11.092;2024-03-08T03:29:00;4.10;54.40
3548;DHT22;1788;49.400;11.092;2024-03-08T03:31:27;4.10;54.40
3548;DHT22;1788;49.400;11.092;2024-03-08T03:33:54;4.10;54.50
3548;DHT22;1788;49.400;11.092;2024-03-08T03:36:21;4.10;54.50
3548;DHT22;1788;49.400;11.092;2024-03-08T03:38:48;4.10;54.60
3548;DHT22;1788;49.400;11.092;2024-03-08T03:41:15;4.10;54.60
3548;DHT22;1788;49.400;11.092;2024-03-08T03:43:42;4.00;55.10
3548;DHT22;1788;49.400;11.092;2024-03-08T03:46:09;4.00;54.50
3548;DHT22;1788;49.400;11.092;2024-03-08T03:48:36;4.00;54.50
3548;DHT22;1788;49.400;11.092;2024-03-08T03:51:02;4.00;54.50
3548;DHT22;1788;49.400;11.092;2024-03-08T03:53:29;4.00;54.50
3548;DHT22;1788;49.400;11.092;2024-03-08T03:55:56;4.00;54.60
3548;DHT22;1788;49.400;11.092;2024-03-08T03:58:22;3.90;54.50
3548;DHT22;1788;49.400;11.092;2024-03-08T04:00:49;3.90;54.60
3548;DHT22;1788;49.400;11.092;2024-03-08T04:03:15;3.90;54.60
3548;DHT22;1788;49.400;11.092;2024-03-08T04:05:42;3.90;54.70
3548;DHT22;1788;49.400;11.092;2024-03-08T04:08:09;3.90;54.70
3548;DHT22;1788;49.400;11.092;2024-03-08T04:10:35;3.90;54.80
3548;DHT22;1788;49.400;11.092;2024-03-08T04:13:02;3.90;54.80
3548;DHT22;1788;49.400;11.092;2024-03-08T04:15:28;3.90;54.80
3548;DHT22;1788;49.400;11.092;2024-03-08T04:17:55;3.90;54.80
3548;DHT22;1788;49.400;11.092;2024-03-08T04:20:22;3.90;54.80
3548;DHT22;1788;49.400;11.092;2024-03-08T04:22:49;3.90;54.90
3548;DHT22;1788;49.400;11.092;2024-03-08T04:25:16;3.90;54.90
3548;DHT22;1788;49.400;11.092;2024-03-08T04:27:43;3.90;54.90
3548;DHT22;1788;49.400;11.092;2024-03-08T04:30:10;3.90;54.90
3548;DHT22;1788;49.400;11.092;2024-03-08T04:32:37;3.90;55.00
3548;DHT22;1788;49.400;11.092;2024-03-08T04:35:04;3.80;54.90
3548;DHT22;1788;49.400;11.092;2024-03-08T04:37:31;3.90;55.00
3548;DHT22;1788;49.400;11.092;2024-03-08T04:39:58;3.90;55.10
3548;DHT22;1788;49.400;11.092;2024-03-08T04:42:26;3.90;55.10
3548;DHT22;1788;49.400;11.092;2024-03-08T04:44:52;3.80;55.00
3548;DHT22;1788;49.400;11.092;2024-03-08T04:47:19;3.90;55.10
3548;DHT22;1788;49.400;11.092;2024-03-08T04:49:46;3.90;55.10
3548;DHT22;1788;49.400;11.092;2024-03-08T04:52:12;3.90;55.00
3548;DHT22;1788;49.400;11.092;2024-03-08T04:54:39;3.90;55.10
3548;DHT22;1788;49.400;11.092;2024-03-08T04:57:06;3.80;55.00
3548;DHT22;1788;49.400;11.092;2024-03-08T04:59:32;3.80;55.00
3548;DHT22;1788;49.400;11.092;2024-03-08T05:01:59;3.80;55.10
3548;DHT22;1788;49.400;11.092;2024-03-08T05:04:25;3.80;55.10
3548;DHT22;1788;49.400;11.092;2024-03-08T05:06:53;3.80;55.20
3548;DHT22;1788;49.400;11.092;2024-03-08T05:09:20;3.80;55.30
3548;DHT22;1788;49.400;11.092;2024-03-08T05:11:47;3.80;55.30
3548;DHT22;1788;49.400;11.092;2024-03-08T05:14:14;3.90;55.40
3548;DHT22;1788;49.400;11.092;2024-03-08T05:16:41;3.90;55.40
3548;DHT22;1788;49.400;11.092;2024-03-08T05:19:07;3.90;55.40
3548;DHT22;1788;49.400;11.092;2024-03-08T05:21:34;3.90;55.40
3548;DHT22;1788;49.400;11.092;2024-03-08T05:24:01;3.90;55.40
3548;DHT22;1788;49.400;11.092;2024-03-08T05:26:28;3.90;55.40
3548;DHT22;1788;49.400;11.092;2024-03-08T05:28:55;3.90;55.40
3548;DHT22;1788;49.400;11.092;2024-03-08T05:31:22;3.90;55.50
3548;DHT22;1788;49.400;11.092;2024-03-08T05:33:49;3.90;55.40
3548;DHT22;1788;49.400;11.092;2024-03-08T05:36:15;3.90;55.50
3548;DHT22;1788;49.400;11.092;2024-03-08T05:41:09;3.90;55.60
3548;DHT22;1788;49.400;11.092;2024-03-08T05:43:35;3.90;55.60
3548;DHT22;1788;49.400;11.092;2024-03-08T05:46:02;4.00;56.20
3548;DHT22;1788;49.400;11.092;2024-03-08T05:48:28;4.00;55.60
3548;DHT22;1788;49.400;11.092;2024-03-08T05:50:55;4.00;55.60
3548;DHT22;1788;49.400;11.092;2024-03-08T05:53:22;4.00;55.60
3548;DHT22;1788;49.400;11.092;2024-03-08T05:55:49;4.00;55.60
3548;DHT22;1788;49.400;11.092;2024-03-08T05:58:16;4.00;55.70
3548;DHT22;1788;49.400;11.092;2024-03-08T06:00:43;3.90;55.60
3548;DHT22;1788;49.400;11.092;2024-03-08T06:03:10;4.00;55.70
3548;DHT22;1788;49.400;11.092;2024-03-08T06:05:37;4.00;55.70
3548;DHT22;1788;49.400;11.092;2024-03-08T06:08:04;4.00;55.60
3548;DHT22;1788;49.400;11.092;2024-03-08T06:10:30;4.00;55.60
3548;DHT22;1788;49.400;11.092;2024-03-08T06:12:57;4.00;55.60
3548;DHT22;1788;49.400;11.092;2024-03-08T06:15:24;4.20;56.50
3548;DHT22;1788;49.400;11.092;2024-03-08T06:17:51;4.20;56.40
3548;DHT22;1788;49.400;11.092;2024-03-08T06:20:18;4.60;56.20
3548;DHT22;1788;49.400;11.092;2024-03-08T06:22:45;4.60;56.20
3548;DHT22;1788;49.400;11.092;2024-03-08T06:25:12;4.80;56.40
3548;DHT22;1788;49.400;11.092;2024-03-08T06:27:40;4.80;56.40
3548;DHT22;1788;49.400;11.092;2024-03-08T06:30:07;4.90;56.10
3548;DHT22;1788;49.400;11.092;2024-03-08T06:32:33;4.90;56.10
3548;DHT22;1788;49.400;11.092;2024-03-08T06:37:27;5.00;56.10
3548;DHT22;1788;49.400;11.092;2024-03-08T06:39:54;5.00;56.10
3548;DHT22;1788;49.400;11.092;2024-03-08T06:42:20;5.00;56.10
3548;DHT22;1788;49.400;11.092;2024-03-08T06:44:48;5.00;56.10
3548;DHT22;1788;49.400;11.092;2024-03-08T06:47:15;5.00;56.10
3548;DHT22;1788;49.400;11.092;2024-03-08T06:52:08;5.00;56.20
3548;DHT22;1788;49.400;11.092;2024-03-08T06:54:34;5.10;56.40
3548;DHT22;1788;49.400;11.092;2024-03-08T06:57:02;5.10;56.40
3548;DHT22;1788;49.400;11.092;2024-03-08T06:59:28;5.10;56.40
3548;DHT22;1788;49.400;11.092;2024-03-08T07:01:56;5.20;56.50
3548;DHT22;1788;49.400;11.092;2024-03-08T07:04:22;5.20;56.50
3548;DHT22;1788;49.400;11.092;2024-03-08T07:06:50;5.30;56.60
3548;DHT22;1788;49.400;11.092;2024-03-08T07:09:16;5.30;56.60
3548;DHT22;1788;49.400;11.092;2024-03-08T07:11:43;5.40;56.60
3548;DHT22;1788;49.400;11.092;2024-03-08T07:14:10;5.40;56.70
3548;DHT22;1788;49.400;11.092;2024-03-08T07:16:37;5.50;56.70
3548;DHT22;1788;49.400;11.092;2024-03-08T07:19:03;5.60;56.80
3548;DHT22;1788;49.400;11.092;2024-03-08T07:21:31;5.70;56.90
3548;DHT22;1788;49.400;11.092;2024-03-08T07:23:57;5.80;56.90
3548;DHT22;1788;49.400;11.092;2024-03-08T07:26:24;5.90;56.80
3548;DHT22;1788;49.400;11.092;2024-03-08T07:28:50;5.90;56.80
3548;DHT22;1788;49.400;11.092;2024-03-08T07:31:17;6.00;56.80
3548;DHT22;1788;49.400;11.092;2024-03-08T07:33:44;6.10;56.80
3548;DHT22;1788;49.400;11.092;2024-03-08T07:36:10;6.20;56.80
3548;DHT22;1788;49.400;11.092;2024-03-08T07:38:37;6.30;56.80
3548;DHT22;1788;49.400;11.092;2024-03-08T07:41:04;6.40;56.80
3548;DHT22;1788;49.400;11.092;2024-03-08T07:43:31;6.50;56.80
3548;DHT22;1788;49.400;11.092;2024-03-08T07:45:58;6.60;56.80
3548;DHT22;1788;49.400;11.092;2024-03-08T07:48:25;6.70;56.70
3548;DHT22;1788;49.400;11.092;2024-03-08T07:50:52;6.80;56.60
3548;DHT22;1788;49.400;11.092;2024-03-08T07:53:19;6.90;56.60
3548;DHT22;1788;49.400;11.092;2024-03-08T07:55:45;6.90;56.40
3548;DHT22;1788;49.400;11.092;2024-03-08T07:58:12;7.00;56.40
3548;DHT22;1788;49.400;11.092;2024-03-08T08:00:38;7.10;56.40
3548;DHT22;1788;49.400;11.092;2024-03-08T08:03:06;7.20;56.40
3548;DHT22;1788;49.400;11.092;2024-03-08T08:05:32;7.30;56.40
3548;DHT22;1788;49.400;11.092;2024-03-08T08:07:59;7.40;56.20
3548;DHT22;1788;49.400;11.092;2024-03-08T08:10:26;7.50;56.20
3548;DHT22;1788;49.400;11.092;2024-03-08T08:12:52;7.60;56.10
3548;DHT22;1788;49.400;11.092;2024-03-08T08:15:19;7.70;55.90
3548;DHT22;1788;49.400;11.092;2024-03-08T08:17:46;7.70;55.70
3548;DHT22;1788;49.400;11.092;2024-03-08T08:20:12;7.80;55.50
3548;DHT22;1788;49.400;11.092;2024-03-08T08:25:06;7.90;55.40
3548;DHT22;1788;49.400;11.092;2024-03-08T08:27:33;7.90;55.40
3548;DHT22;1788;49.400;11.092;2024-03-08T08:30:00;8.00;55.30
3548;DHT22;1788;49.400;11.092;2024-03-08T08:32:28;8.10;54.70
3548;DHT22;1788;49.400;11.092;2024-03-08T08:34:54;8.10;54.90
3548;DHT22;1788;49.400;11.092;2024-03-08T08:37:21;8.10;54.60
3548;DHT22;1788;49.400;11.092;2024-03-08T08:39:48;8.20;54.60
3548;DHT22;1788;49.400;11.092;2024-03-08T08:42:16;8.30;54.80
3548;DHT22;1788;49.400;11.092;2024-03-08T08:44:42;8.30;54.40
3548;DHT22;1788;49.400;11.092;2024-03-08T08:47:09;8.40;54.40
3548;DHT22;1788;49.400;11.092;2024-03-08T08:49:36;8.50;54.30
3548;DHT22;1788;49.400;11.092;2024-03-08T08:52:03;8.60;54.10
3548;DHT22;1788;49.400;11.092;2024-03-08T08:54:30;8.70;53.80
3548;DHT22;1788;49.400;11.092;2024-03-08T08:56:57;8.80;53.70
3548;DHT22;1788;49.400;11.092;2024-03-08T08:59:24;9.00;53.50
3548;DHT22;1788;49.400;11.092;2024-03-08T09:01:51;9.00;53.50
3548;DHT22;1788;49.400;11.092;2024-03-08T09:04:18;9.10;53.30
3548;DHT22;1788;49.400;11.092;2024-03-08T09:06:45;9.10;53.20
3548;DHT22;1788;49.400;11.092;2024-03-08T09:09:13;9.40;53.00
3548;DHT22;1788;49.400;11.092;2024-03-08T09:11:40;9.40;52.90
3548;DHT22;1788;49.400;11.092;2024-03-08T09:14:06;9.50;52.70
3548;DHT22;1788;49.400;11.092;2024-03-08T09:16:33;9.50;52.20
3548;DHT22;1788;49.400;11.092;2024-03-08T09:18:59;9.60;52.10
3548;DHT22;1788;49.400;11.092;2024-03-08T09:21:26;9.50;51.80
3548;DHT22;1788;49.400;11.092;2024-03-08T09:23:53;9.60;51.90
3548;DHT22;1788;49.400;11.092;2024-03-08T09:26:19;9.60;51.80
3548;DHT22;1788;49.400;11.092;2024-03-08T09:28:46;9.70;51.80
3548;DHT22;1788;49.400;11.092;2024-03-08T09:31:12;9.80;51.60
3548;DHT22;1788;49.400;11.092;2024-03-08T09:33:39;9.80;51.60
3548;DHT22;1788;49.400;11.092;2024-03-08T09:36:06;9.90;51.50
3548;DHT22;1788;49.400;11.092;2024-03-08T09:38:32;10.00;50.40
3548;DHT22;1788;49.400;11.092;2024-03-08T09:40:59;10.00;50.30
3548;DHT22;1788;49.400;11.092;2024-03-08T09:43:25;10.10;50.20
3548;DHT22;1788;49.400;11.092;2024-03-08T09:45:53;10.20;50.00
3548;DHT22;1788;49.400;11.092;2024-03-08T09:48:20;10.20;49.60
3548;DHT22;1788;49.400;11.092;2024-03-08T09:50:47;10.30;49.60
3548;DHT22;1788;49.400;11.092;2024-03-08T09:53:14;10.20;49.40
3548;DHT22;1788;49.400;11.092;2024-03-08T09:55:41;10.30;49.60
3548;DHT22;1788;49.400;11.092;2024-03-08T09:58:08;10.30;49.10
3548;DHT22;1788;49.400;11.092;2024-03-08T10:00:34;10.40;49.20
3548;DHT22;1788;49.400;11.092;2024-03-08T10:03:01;10.50;49.30
3548;DHT22;1788;49.400;11.092;2024-03-08T10:05:28;10.60;49.30
3548;DHT22;1788;49.400;11.092;2024-03-08T10:07:54;10.80;49.30
3548;DHT22;1788;49.400;11.092;2024-03-08T10:10:21;10.90;49.10
3548;DHT22;1788;49.400;11.092;2024-03-08T10:12:47;11.10;49.10
3548;DHT22;1788;49.400;11.092;2024-03-08T10:15:15;11.20;49.00
3548;DHT22;1788;49.400;11.092;2024-03-08T10:17:41;11.40;48.90
3548;DHT22;1788;49.400;11.092;2024-03-08T10:22:34;11.60;48.70
3548;DHT22;1788;49.400;11.092;2024-03-08T10:25:00;11.70;48.60
3548;DHT22;1788;49.400;11.092;2024-03-08T10:27:28;11.80;48.50
3548;DHT22;1788;49.400;11.092;2024-03-08T10:29:56;12.10;48.10
3548;DHT22;1788;49.400;11.092;2024-03-08T10:32:24;12.00;48.00
3548;DHT22;1788;49.400;11.092;2024-03-08T10:34:50;12.20;47.80
3548;DHT22;1788;49.400;11.092;2024-03-08T10:37:19;12.20;47.70
3548;DHT22;1788;49.400;11.092;2024-03-08T10:39:46;12.40;47.40
3548;DHT22;1788;49.400;11.092;2024-03-08T10:42:12;12.40;47.40
3548;DHT22;1788;49.400;11.092;2024-03-08T10:44:40;12.50;47.20
3548;DHT22;1788;49.400;11.092;2024-03-08T10:49:32;12.70;46.80
3548;DHT22;1788;49.400;11.092;2024-03-08T10:51:58;12.80;46.80
3548;DHT22;1788;49.400;11.092;2024-03-08T10:54:26;13.00;46.50
3548;DHT22;1788;49.400;11.092;2024-03-08T10:56:52;13.10;46.60
3548;DHT22;1788;49.400;11.092;2024-03-08T10:59:20;13.30;45.80
3548;DHT22;1788;49.400;11.092;2024-03-08T11:01:46;13.30;45.80
3548;DHT22;1788;49.400;11.092;2024-03-08T11:04:14;13.20;44.70
3548;DHT22;1788;49.400;11.092;2024-03-08T11:06:41;13.20;44.60
3548;DHT22;1788;49.400;11.092;2024-03-08T11:11:35;13.30;44.50
3548;DHT22;1788;49.400;11.092;2024-03-08T11:14:02;13.20;43.90
3548;DHT22;1788;49.400;11.092;2024-03-08T11:21:24;13.20;43.70
3548;DHT22;1788;49.400;11.092;2024-03-08T11:26:19;13.40;43.70
3548;DHT22;1788;49.400;11.092;2024-03-08T11:28:45;13.50;43.60
3548;DHT22;1788;49.400;11.092;2024-03-08T11:33:40;14.00;43.30
3548;DHT22;1788;49.400;11.092;2024-03-08T11:38:34;14.40;43.00
3548;DHT22;1788;49.400;11.092;2024-03-08T11:41:00;14.40;42.90
3548;DHT22;1788;49.400;11.092;2024-03-08T11:43:27;14.60;42.70
3548;DHT22;1788;49.400;11.092;2024-03-08T11:46:07;14.80;42.50
3548;DHT22;1788;49.400;11.092;2024-03-08T11:48:21;15.00;42.10
3548;DHT22;1788;49.400;11.092;2024-03-08T11:50:51;15.20;41.80
3548;DHT22;1788;49.400;11.092;2024-03-08T11:53:15;15.60;42.10
3548;DHT22;1788;49.400;11.092;2024-03-08T11:55:41;15.60;41.50
3548;DHT22;1788;49.400;11.092;2024-03-08T11:58:09;15.70;41.00
3548;DHT22;1788;49.400;11.092;2024-03-08T12:00:35;15.70;40.40
3548;DHT22;1788;49.400;11.092;2024-03-08T12:05:30;15.80;40.40
3548;DHT22;1788;49.400;11.092;2024-03-08T12:07:57;15.90;40.50
3548;DHT22;1788;49.400;11.092;2024-03-08T12:10:23;16.00;40.40
3548;DHT22;1788;49.400;11.092;2024-03-08T12:12:53;16.00;40.30
3548;DHT22;1788;49.400;11.092;2024-03-08T12:15:17;16.10;40.30
3548;DHT22;1788;49.400;11.092;2024-03-08T12:17:44;16.20;40.10
3548;DHT22;1788;49.400;11.092;2024-03-08T12:22:40;16.40;39.80
3548;DHT22;1788;49.400;11.092;2024-03-08T12:25:04;16.40;39.30
3548;DHT22;1788;49.400;11.092;2024-03-08T12:27:30;16.50;39.10
3548;DHT22;1788;49.400;11.092;2024-03-08T12:29:56;16.60;38.70
3548;DHT22;1788;49.400;11.092;2024-03-08T12:32:23;16.70;38.30
3548;DHT22;1788;49.400;11.092;2024-03-08T12:37:17;17.70;36.70
3548;DHT22;1788;49.400;11.092;2024-03-08T12:39:43;17.60;36.60
3548;DHT22;1788;49.400;11.092;2024-03-08T12:42:11;18.60;35.90
3548;DHT22;1788;49.400;11.092;2024-03-08T12:44:37;18.60;35.80
3548;DHT22;1788;49.400;11.092;2024-03-08T12:47:05;19.50;34.80
3548;DHT22;1788;49.400;11.092;2024-03-08T12:49:31;19.50;34.70
3548;DHT22;1788;49.400;11.092;2024-03-08T12:51:59;20.60;34.20
3548;DHT22;1788;49.400;11.092;2024-03-08T12:54:28;21.00;33.70
3548;DHT22;1788;49.400;11.092;2024-03-08T12:56:55;21.00;33.60
3548;DHT22;1788;49.400;11.092;2024-03-08T12:59:21;20.90;33.50
3548;DHT22;1788;49.400;11.092;2024-03-08T13:01:48;20.40;33.80
3548;DHT22;1788;49.400;11.092;2024-03-08T13:04:15;19.90;34.20
3548;DHT22;1788;49.400;11.092;2024-03-08T13:06:41;19.10;34.00
3548;DHT22;1788;49.400;11.092;2024-03-08T13:09:08;18.50;34.20
3548;DHT22;1788;49.400;11.092;2024-03-08T13:11:34;17.90;34.60
3548;DHT22;1788;49.400;11.092;2024-03-08T13:14:02;17.40;34.90
3548;DHT22;1788;49.400;11.092;2024-03-08T13:16:28;17.00;35.30
3548;DHT22;1788;49.400;11.092;2024-03-08T13:18:54;16.60;35.30
3548;DHT22;1788;49.400;11.092;2024-03-08T13:21:21;16.30;35.40
3548;DHT22;1788;49.400;11.092;2024-03-08T13:23:47;16.00;35.60
3548;DHT22;1788;49.400;11.092;2024-03-08T13:26:15;15.70;35.60
3548;DHT22;1788;49.400;11.092;2024-03-08T13:28:43;15.70;35.60
3548;DHT22;1788;49.400;11.092;2024-03-08T13:33:36;16.10;35.50
3548;DHT22;1788;49.400;11.092;2024-03-08T13:36:02;17.20;35.20
3548;DHT22;1788;49.400;11.092;2024-03-08T13:38:29;18.60;34.10
3548;DHT22;1788;49.400;11.092;2024-03-08T13:40:55;19.40;33.20
3548;DHT22;1788;49.400;11.092;2024-03-08T13:43:22;20.30;32.80
3548;DHT22;1788;49.400;11.092;2024-03-08T13:45:51;21.20;32.20
3548;DHT22;1788;49.400;11.092;2024-03-08T13:48:18;21.70;31.40
3548;DHT22;1788;49.400;11.092;2024-03-08T13:50:45;21.70;30.90
3548;DHT22;1788;49.400;11.092;2024-03-08T13:53:11;21.70;30.90
3548;DHT22;1788;49.400;11.092;2024-03-08T13:55:38;21.70;31.00
3548;DHT22;1788;49.400;11.092;2024-03-08T13:58:05;22.80;31.00
3548;DHT22;1788;49.400;11.092;2024-03-08T14:00:32;22.70;30.90
3548;DHT22;1788;49.400;11.092;2024-03-08T14:02:59;23.10;30.90
3548;DHT22;1788;49.400;11.092;2024-03-08T14:05:26;23.00;30.10
3548;DHT22;1788;49.400;11.092;2024-03-08T14:07:53;22.90;30.50
3548;DHT22;1788;49.400;11.092;2024-03-08T14:10:20;22.90;30.40
3548;DHT22;1788;49.400;11.092;2024-03-08T14:12:48;23.00;30.20
3548;DHT22;1788;49.400;11.092;2024-03-08T14:15:14;23.00;30.10
3548;DHT22;1788;49.400;11.092;2024-03-08T14:17:41;22.80;30.40
3548;DHT22;1788;49.400;11.092;2024-03-08T14:20:08;22.80;30.30
3548;DHT22;1788;49.400;11.092;2024-03-08T14:22:35;22.90;30.50
3548;DHT22;1788;49.400;11.092;2024-03-08T14:25:01;23.10;30.40
3548;DHT22;1788;49.400;11.092;2024-03-08T14:27:28;23.10;30.40
3548;DHT22;1788;49.400;11.092;2024-03-08T14:29:55;23.10;30.50
3548;DHT22;1788;49.400;11.092;2024-03-08T14:32:21;23.00;30.60
3548;DHT22;1788;49.400;11.092;2024-03-08T14:34:48;23.20;30.30
3548;DHT22;1788;49.400;11.092;2024-03-08T14:37:15;22.90;30.40
3548;DHT22;1788;49.400;11.092;2024-03-08T14:39:43;23.20;30.40
3548;DHT22;1788;49.400;11.092;2024-03-08T14:42:09;23.20;30.30
3548;DHT22;1788;49.400;11.092;2024-03-08T14:44:38;23.30;30.40
3548;DHT22;1788;49.400;11.092;2024-03-08T14:47:03;23.30;30.40
3548;DHT22;1788;49.400;11.092;2024-03-08T14:49:31;23.40;30.40
3548;DHT22;1788;49.400;11.092;2024-03-08T14:51:57;23.30;30.20
3548;DHT22;1788;49.400;11.092;2024-03-08T14:54:25;22.40;30.00
3548;DHT22;1788;49.400;11.092;2024-03-08T14:56:51;22.40;30.00
3548;DHT22;1788;49.400;11.092;2024-03-08T14:59:18;22.00;30.00
3548;DHT22;1788;49.400;11.092;2024-03-08T15:01:45;21.70;30.20
3548;DHT22;1788;49.400;11.092;2024-03-08T15:04:11;21.70;30.40
3548;DHT22;1788;49.400;11.092;2024-03-08T15:06:38;21.80;30.40
3548;DHT22;1788;49.400;11.092;2024-03-08T15:09:04;21.60;30.30
3548;DHT22;1788;49.400;11.092;2024-03-08T15:11:31;21.50;30.30
3548;DHT22;1788;49.400;11.092;2024-03-08T15:13:58;21.40;30.50
3548;DHT22;1788;49.400;11.092;2024-03-08T15:16:25;21.60;30.80
3548;DHT22;1788;49.400;11.092;2024-03-08T15:18:52;21.50;30.70
3548;DHT22;1788;49.400;11.092;2024-03-08T15:21:19;21.50;30.90
3548;DHT22;1788;49.400;11.092;2024-03-08T15:23:46;21.40;30.70
3548;DHT22;1788;49.400;11.092;2024-03-08T15:26:13;20.90;30.90
3548;DHT22;1788;49.400;11.092;2024-03-08T15:28:40;20.90;30.80
3548;DHT22;1788;49.400;11.092;2024-03-08T15:31:07;20.70;31.70
3548;DHT22;1788;49.400;11.092;2024-03-08T15:33:34;20.50;31.20
3548;DHT22;1788;49.400;11.092;2024-03-08T15:36:00;20.20;31.40
3548;DHT22;1788;49.400;11.092;2024-03-08T15:38:28;19.60;31.90
3548;DHT22;1788;49.400;11.092;2024-03-08T15:40:55;19.60;31.80
3548;DHT22;1788;49.400;11.092;2024-03-08T15:43:22;19.00;32.20
3548;DHT22;1788;49.400;11.092;2024-03-08T15:45:48;18.90;32.10
3548;DHT22;1788;49.400;11.092;2024-03-08T15:48:16;18.40;32.80
3548;DHT22;1788;49.400;11.092;2024-03-08T15:50:42;18.40;32.70
3548;DHT22;1788;49.400;11.092;2024-03-08T15:53:10;18.00;33.70
3548;DHT22;1788;49.400;11.092;2024-03-08T15:55:36;17.90;33.60
3548;DHT22;1788;49.400;11.092;2024-03-08T15:58:04;17.60;34.60
3548;DHT22;1788;49.400;11.092;2024-03-08T16:00:30;17.60;33.90
3548;DHT22;1788;49.400;11.092;2024-03-08T16:02:57;17.40;34.10
3548;DHT22;1788;49.400;11.092;2024-03-08T16:05:23;17.30;34.30
3548;DHT22;1788;49.400;11.092;2024-03-08T16:07:50;17.10;34.50
3548;DHT22;1788;49.400;11.092;2024-03-08T16:10:17;17.00;34.60
3548;DHT22;1788;49.400;11.092;2024-03-08T16:12:43;16.80;34.70
3548;DHT22;1788;49.400;11.092;2024-03-08T16:15:10;16.60;34.80
3548;DHT22;1788;49.400;11.092;2024-03-08T16:17:37;16.40;35.00
3548;DHT22;1788;49.400;11.092;2024-03-08T16:20:04;16.00;35.20
3548;DHT22;1788;49.400;11.092;2024-03-08T16:22:31;16.00;35.20
3548;DHT22;1788;49.400;11.092;2024-03-08T16:24:58;15.60;35.60
3548;DHT22;1788;49.400;11.092;2024-03-08T16:27:24;15.60;35.60
3548;DHT22;1788;49.400;11.092;2024-03-08T16:29:52;15.30;36.40
3548;DHT22;1788;49.400;11.092;2024-03-08T16:32:18;15.30;36.40
3548;DHT22;1788;49.400;11.092;2024-03-08T16:34:46;14.90;36.70
3548;DHT22;1788;49.400;11.092;2024-03-08T16:37:12;14.90;36.70